Time;durP1;ratioP1;P1;durP2;ratioP2;P2;SDS_P1;SDS_P2;PMS_P1;PMS_P2;Temp;Humidity;BMP_temperature;BMP_pressure;BME280_temperature;BME280_humidity;BME280_pressure;Samples;Min_cycle;Max_cycle;Signal;HPM_P1;HPM_P2
2023/06/04 00:06:43;;;;;;;;;;;;;;;;;;;;;
2023/06/04 00:10:07;;;;;;;7.47;5.03;;;19.50;99.90;;;;;;4923530;29;20064;-81
2023/06/04 00:12:49;;;;;;;7.82;4.80;;;19.40;99.90;;;;;;4919068;29;20055;-82
2023/06/04 00:15:31;;;;;;;7.43;5.13;;;19.30;99.90;;;;;;4927573;29;20052;-85
2023/06/04 00:18:05;;;;;;;10.70;5.35;;;19.30;99.90;;;;;;4912127;29;20064;-78
2023/06/04 00:21:34;;;;;;;8.10;5.38;;;19.20;99.90;;;;;;4909688;29;20047;-78
2023/06/04 00:27:38;;;;;;;7.30;4.95;;;19.00;99.90;;;;;;4909221;29;20056;-82
2023/06/04 00:30:21;;;;;;;7.75;4.93;;;18.70;99.90;;;;;;4923171;29;20199;-81
2023/06/04 00:33:02;;;;;;;8.93;5.50;;;19.00;99.90;;;;;;4909127;29;20039;-83
2023/06/04 00:35:33;;;;;;;7.57;5.40;;;19.10;99.90;;;;;;4911017;29;20141;-80
2023/06/04 00:38:01;;;;;;;8.68;5.60;;;19.10;99.90;;;;;;4883320;29;20097;-78
2023/06/04 00:40:30;;;;;;;8.10;5.57;;;19.10;99.90;;;;;;4906689;29;20060;-82
2023/06/04 00:46:29;;;;;;;7.70;5.80;;;18.90;99.90;;;;;;5007818;23;20088;-84
2023/06/04 00:56:01;;;;;;;8.30;5.10;;;18.90;99.90;;;;;;4901731;29;19930;-80
2023/06/04 00:58:28;;;;;;;7.22;5.07;;;18.80;99.90;;;;;;4948544;29;20047;-80
2023/06/04 01:01:58;;;;;;;7.97;5.78;;;18.70;99.90;;;;;;4916075;29;20060;-84
2023/06/04 01:05:16;;;;;;;7.60;5.53;;;18.80;99.90;;;;;;4994509;23;20096;-84
2023/06/04 01:07:46;;;;;;;9.82;5.55;;;18.90;99.90;;;;;;4909918;29;20072;-84
2023/06/04 01:10:15;;;;;;;8.10;5.35;;;18.90;99.90;;;;;;4896195;29;20056;-83
2023/06/04 01:15:35;;;;;;;9.93;5.40;;;18.80;99.90;;;;;;4925685;29;20048;-82
2023/06/04 01:18:05;;;;;;;9.15;5.78;;;18.60;99.90;;;;;;4918917;29;20413;-84
2023/06/04 01:20:49;;;;;;;8.63;5.45;;;18.70;99.90;;;;;;4908616;29;20068;-84
2023/06/04 01:23:49;;;;;;;9.50;5.78;;;18.80;99.90;;;;;;4907471;29;20048;-78
2023/06/04 01:26:51;;;;;;;18.60;5.60;;;18.80;99.90;;;;;;4916268;29;20051;-81
2023/06/04 01:29:20;;;;;;;6.88;5.30;;;18.50;99.90;;;;;;4924507;29;20433;-82
2023/06/04 01:34:45;;;;;;;8.60;5.75;;;18.60;99.90;;;;;;5104021;23;20147;-82
2023/06/04 01:37:13;;;;;;;7.90;5.47;;;18.60;99.90;;;;;;4926206;29;20054;-83
2023/06/04 01:39:41;;;;;;;6.70;5.00;;;18.60;99.90;;;;;;4918613;29;20054;-81
2023/06/04 01:42:08;;;;;;;8.15;5.90;;;18.60;99.90;;;;;;4929512;29;20040;-83
2023/06/04 01:44:51;;;;;;;8.32;5.30;;;18.60;99.90;;;;;;4916382;23;20143;-83
2023/06/04 01:47:19;;;;;;;8.20;5.40;;;18.60;99.90;;;;;;4909441;29;20072;-84
2023/06/04 01:49:46;;;;;;;7.28;5.47;;;18.60;99.90;;;;;;4906858;29;20044;-83
2023/06/04 01:52:16;;;;;;;8.40;5.78;;;18.50;99.90;;;;;;4920583;29;20048;-84
2023/06/04 01:57:36;;;;;;;10.25;5.72;;;18.60;99.90;;;;;;4926265;29;20044;-82
2023/06/04 02:00:07;;;;;;;7.93;5.43;;;18.60;99.90;;;;;;4923744;29;20047;-78
2023/06/04 02:02:45;;;;;;;8.50;5.65;;;18.60;99.90;;;;;;4905841;29;20051;-82
2023/06/04 02:05:26;;;;;;;10.93;6.15;;;18.70;99.90;;;;;;4921224;29;20059;-83
2023/06/04 02:07:57;;;;;;;8.48;5.85;;;18.60;99.90;;;;;;4913319;29;20123;-84
2023/06/04 02:10:24;;;;;;;8.23;5.55;;;18.60;99.90;;;;;;4922940;29;20115;-84
2023/06/04 02:12:58;;;;;;;11.25;5.32;;;18.70;99.90;;;;;;4924525;29;20112;-83
2023/06/04 02:15:28;;;;;;;8.50;5.57;;;18.70;99.90;;;;;;4927191;29;20051;-80
2023/06/04 02:18:15;;;;;;;7.85;5.78;;;18.70;99.90;;;;;;4883557;29;20053;-79
2023/06/04 02:20:45;;;;;;;9.23;4.70;;;18.50;99.90;;;;;;4892481;29;20052;-83
2023/06/04 02:23:19;;;;;;;7.35;5.03;;;18.50;99.90;;;;;;4905467;29;20067;-83
2023/06/04 02:25:49;;;;;;;7.80;4.78;;;18.40;99.90;;;;;;4878994;29;20062;-81
2023/06/04 02:28:17;;;;;;;8.02;5.53;;;18.40;99.90;;;;;;4923504;29;20075;-83
2023/06/04 02:31:00;;;;;;;9.55;5.18;;;18.30;99.90;;;;;;4907394;29;20053;-82
2023/06/04 02:34:12;;;;;;;7.78;5.00;;;18.30;99.90;;;;;;4888680;29;20040;-82
2023/06/04 02:37:04;;;;;;;7.97;5.00;;;18.20;99.90;;;;;;4907809;29;20137;-85
2023/06/04 02:39:34;;;;;;;7.37;4.83;;;18.20;99.90;;;;;;4926032;29;20071;-81
2023/06/04 02:42:04;;;;;;;6.90;4.95;;;18.30;99.90;;;;;;4923241;29;20056;-83
2023/06/04 02:44:32;;;;;;;9.23;5.43;;;18.20;99.90;;;;;;4905871;29;20044;-82
2023/06/04 02:49:50;;;;;;;7.00;5.05;;;18.00;99.90;;;;;;5059721;23;20049;-80
2023/06/04 02:55:16;;;;;;;6.97;4.90;;;17.90;99.90;;;;;;4945260;23;20052;-81
2023/06/04 02:57:54;;;;;;;8.70;4.88;;;18.10;99.90;;;;;;4914522;29;20041;-77
2023/06/04 03:01:26;;;;;;;7.05;4.95;;;18.20;99.90;;;;;;4849209;29;20081;-83
2023/06/04 03:03:57;;;;;;;7.43;4.70;;;18.20;99.90;;;;;;4867502;29;20053;-83
2023/06/04 03:06:25;;;;;;;10.10;4.97;;;18.20;99.90;;;;;;4857692;29;20053;-82
2023/06/04 03:09:07;;;;;;;7.40;4.97;;;18.10;99.90;;;;;;4862016;29;20470;-82
2023/06/04 03:11:34;;;;;;;8.27;5.13;;;18.00;99.90;;;;;;4832939;29;20473;-84
2023/06/04 03:14:10;;;;;;;7.50;4.85;;;18.00;99.90;;;;;;4873551;29;20631;-77
2023/06/04 03:16:39;;;;;;;9.02;5.28;;;18.10;99.90;;;;;;4828877;29;20079;-79
2023/06/04 03:19:08;;;;;;;6.63;4.82;;;18.10;99.90;;;;;;4855316;29;20601;-83
2023/06/04 03:23:00;;;;;;;9.10;5.30;;;18.10;99.90;;;;;;4832639;29;20061;-82
2023/06/04 03:25:20;;;;;;;8.63;4.80;;;18.10;99.90;;;;;;4849345;29;20043;-84
2023/06/04 03:27:58;;;;;;;6.18;4.55;;;18.30;99.90;;;;;;4856573;29;20050;-81
2023/06/04 03:30:25;;;;;;;7.18;4.95;;;18.30;99.90;;;;;;4863881;29;20140;-82
2023/06/04 03:32:53;;;;;;;9.82;4.65;;;18.20;99.90;;;;;;4893316;29;20049;-85
2023/06/04 03:35:34;;;;;;;7.68;4.70;;;18.20;99.90;;;;;;4908046;29;20056;-83
2023/06/04 03:38:02;;;;;;;8.25;4.80;;;18.20;99.90;;;;;;4917008;29;20111;-83
2023/06/04 03:40:36;;;;;;;7.45;4.43;;;18.20;99.90;;;;;;4892726;29;20048;-81
2023/06/04 03:43:48;;;;;;;6.38;4.63;;;18.20;99.90;;;;;;4880126;29;20048;-84
2023/06/04 03:50:12;;;;;;;8.68;5.05;;;18.30;99.90;;;;;;4881759;29;20052;-82
2023/06/04 03:52:53;;;;;;;7.20;4.60;;;18.40;99.90;;;;;;4910113;29;20060;-84
2023/06/04 03:55:21;;;;;;;8.02;4.95;;;18.50;99.90;;;;;;4922840;29;20314;-83
2023/06/04 03:57:49;;;;;;;12.10;4.88;;;18.40;99.90;;;;;;4909432;29;20052;-83
2023/06/04 04:00:20;;;;;;;8.63;5.00;;;18.50;99.90;;;;;;4893160;29;20049;-83
2023/06/04 04:02:49;;;;;;;7.43;5.28;;;18.50;99.90;;;;;;4914112;29;20056;-82
2023/06/04 04:05:29;;;;;;;8.55;4.97;;;18.20;99.90;;;;;;4895640;29;20056;-80
2023/06/04 04:08:55;;;;;;;8.85;5.13;;;18.20;99.90;;;;;;4919820;29;20060;-83
2023/06/04 04:11:36;;;;;;;8.05;5.15;;;18.50;99.90;;;;;;4913792;29;20067;-80
2023/06/04 04:14:03;;;;;;;8.60;5.00;;;18.70;99.90;;;;;;4903959;29;20107;-81
2023/06/04 04:16:51;;;;;;;7.07;4.90;;;18.70;99.90;;;;;;4921448;29;20088;-77
2023/06/04 04:19:34;;;;;;;11.50;5.18;;;18.50;99.90;;;;;;4912836;29;20051;-83
2023/06/04 04:22:01;;;;;;;9.25;5.40;;;18.60;99.90;;;;;;4891500;29;20143;-84
2023/06/04 04:24:29;;;;;;;9.40;6.43;;;18.70;99.90;;;;;;4917426;29;20468;-84
2023/06/04 04:26:59;;;;;;;8.32;6.10;;;18.70;99.90;;;;;;4926439;29;20052;-82
2023/06/04 04:29:27;;;;;;;8.38;4.80;;;18.70;99.90;;;;;;4923926;29;20080;-83
2023/06/04 04:32:10;;;;;;;9.18;5.55;;;18.70;99.90;;;;;;4913662;29;20052;-83
2023/06/04 04:34:52;;;;;;;7.05;5.15;;;18.80;99.90;;;;;;4908951;29;20056;-84
2023/06/04 04:37:32;;;;;;;9.25;5.03;;;18.80;99.90;;;;;;4893312;29;20060;-84
2023/06/04 04:40:11;;;;;;;9.70;5.45;;;18.70;99.90;;;;;;4900082;29;20060;-77
2023/06/04 04:44:29;;;;;;;9.38;5.68;;;18.70;99.90;;;;;;4880391;29;20118;-76
2023/06/04 04:46:54;;;;;;;8.68;5.18;;;18.70;99.90;;;;;;4919991;29;20060;-82
2023/06/04 04:49:24;;;;;;;8.63;4.82;;;18.80;99.90;;;;;;4922395;29;20054;-81
2023/06/04 04:51:51;;;;;;;9.23;5.15;;;18.80;99.90;;;;;;4918755;29;20049;-84
2023/06/04 04:58:11;;;;;;;9.73;4.90;;;18.80;99.90;;;;;;5078692;23;20096;-82
2023/06/04 05:00:53;;;;;;;6.55;4.65;;;18.80;99.90;;;;;;4908804;29;20076;-82
2023/06/04 05:03:58;;;;;;;8.70;5.00;;;18.80;99.90;;;;;;4867899;29;20048;-82
2023/06/04 05:06:29;;;;;;;9.60;5.05;;;18.70;99.90;;;;;;4898186;29;20079;-83
2023/06/04 05:08:57;;;;;;;7.60;4.70;;;18.90;99.90;;;;;;4887549;29;20063;-81
2023/06/04 05:17:21;;;;;;;7.05;4.30;;;19.10;99.90;;;;;;4856141;26;20044;-83
2023/06/04 05:22:48;;;;;;;8.35;5.00;;;19.30;99.90;;;;;;4916101;29;20139;-81
2023/06/04 05:25:59;;;;;;;9.30;5.20;;;19.30;99.90;;;;;;5433384;23;20050;-84
2023/06/04 05:28:27;;;;;;;8.25;5.18;;;19.10;99.90;;;;;;4897621;29;20073;-84
2023/06/04 05:31:01;;;;;;;11.07;5.20;;;19.30;99.90;;;;;;4913673;29;20063;-80
2023/06/04 05:33:37;;;;;;;8.05;4.90;;;19.40;99.90;;;;;;4927349;29;20040;-77
2023/06/04 05:36:16;;;;;;;8.65;5.43;;;19.50;99.90;;;;;;4884424;29;20057;-83
2023/06/04 05:38:45;;;;;;;7.80;5.25;;;19.50;99.90;;;;;;4911997;29;20127;-85
2023/06/04 05:41:14;;;;;;;9.98;5.47;;;19.40;99.90;;;;;;4898186;29;20063;-84
2023/06/04 05:43:44;;;;;;;8.35;5.07;;;19.50;99.90;;;;;;4896852;29;20040;-81
2023/06/04 05:46:22;;;;;;;9.57;5.22;;;19.50;99.90;;;;;;4921736;29;20084;-78
2023/06/04 05:50:04;;;;;;;11.02;4.43;;;19.60;99.90;;;;;;4892090;29;20071;-85
2023/06/04 05:52:51;;;;;;;8.23;4.85;;;19.80;99.90;;;;;;4935176;29;20119;-84
2023/06/04 05:55:55;;;;;;;8.60;4.80;;;19.90;99.90;;;;;;4897006;29;20561;-82
2023/06/04 05:59:07;;;;;;;7.78;4.75;;;19.60;99.90;;;;;;4914660;29;20133;-84
2023/06/04 06:01:43;;;;;;;7.45;4.47;;;19.80;99.90;;;;;;4867335;29;20049;-85
2023/06/04 06:05:11;;;;;;;12.13;5.28;;;20.00;99.90;;;;;;4877418;29;20025;-84
2023/06/04 06:07:41;;;;;;;8.95;5.22;;;20.20;99.90;;;;;;4872634;29;20057;-83
2023/06/04 06:10:09;;;;;;;8.38;5.30;;;20.00;99.90;;;;;;4889368;29;20057;-83
2023/06/04 06:12:38;;;;;;;7.68;4.75;;;19.80;99.90;;;;;;4885374;29;20076;-83
2023/06/04 06:15:21;;;;;;;7.80;4.70;;;20.00;99.90;;;;;;4896772;29;20512;-81
2023/06/04 06:18:03;;;;;;;7.70;4.68;;;19.60;99.90;;;;;;4889684;29;20081;-81
2023/06/04 06:24:21;;;;;;;8.00;3.65;;;20.00;99.90;;;;;;4811806;29;20111;-82
2023/06/04 06:30:40;;;;;;;5.28;3.40;;;20.30;99.90;;;;;;4823657;29;20084;-83
2023/06/04 06:37:00;;;;;;;5.35;3.30;;;20.20;99.90;;;;;;5079496;23;20055;-83
2023/06/04 06:43:10;;;;;;;5.78;2.92;;;20.40;99.90;;;;;;5161883;23;20141;-85
2023/06/04 06:53:23;;;;;;;5.80;2.40;;;20.70;99.90;;;;;;4932148;29;20040;-85
2023/06/04 06:56:07;;;;;;;3.92;2.30;;;20.70;99.90;;;;;;4929125;29;20063;-85
2023/06/04 06:59:58;;;;;;;;;;;;;;;;;;;;;
2023/06/04 07:03:38;;;;;;;7.05;2.40;;;19.90;99.90;;;;;;4837177;29;20571;-82
2023/06/04 07:06:26;;;;;;;4.30;2.30;;;20.30;99.90;;;;;;4824075;29;20068;-84
2023/06/04 07:09:07;;;;;;;3.78;2.22;;;20.70;99.90;;;;;;4876918;29;20084;-79
2023/06/04 07:11:52;;;;;;;4.28;2.22;;;21.00;99.90;;;;;;4881140;29;20052;-79
2023/06/04 07:14:29;;;;;;;4.30;2.45;;;21.10;99.90;;;;;;5228531;23;20398;-83
2023/06/04 07:17:11;;;;;;;4.35;2.30;;;21.00;99.90;;;;;;4851555;29;20054;-80
2023/06/04 07:19:48;;;;;;;3.97;2.30;;;21.20;99.90;;;;;;4852260;29;20053;-84
2023/06/04 07:22:53;;;;;;;3.60;2.23;;;21.00;99.90;;;;;;4856678;29;20454;-85
2023/06/04 07:29:18;;;;;;;3.78;2.30;;;20.80;99.90;;;;;;4906894;29;20143;-79
2023/06/04 07:32:34;;;;;;;4.38;2.70;;;21.00;99.90;;;;;;4878367;29;20044;-84
2023/06/04 07:36:03;;;;;;;4.70;2.33;;;20.90;99.90;;;;;;4896968;29;20045;-82
2023/06/04 07:38:32;;;;;;;5.78;2.88;;;21.20;99.90;;;;;;4908394;29;20045;-84
2023/06/04 07:54:10;;;;;;;6.32;2.33;;;21.00;99.90;;;;;;5024018;23;20064;-85
2023/06/04 07:56:55;;;;;;;3.65;1.90;;;21.70;99.90;;;;;;4899482;29;20060;-84
2023/06/04 07:59:41;;;;;;;3.53;1.77;;;21.30;99.90;;;;;;4922537;29;20096;-84
2023/06/04 08:02:50;;;;;;;2.00;1.60;;;21.70;99.90;;;;;;4930021;29;20044;-78
2023/06/04 08:05:50;;;;;;;2.85;1.70;;;22.00;99.90;;;;;;4948907;29;20059;-84
2023/06/04 08:08:35;;;;;;;2.53;1.70;;;22.40;99.90;;;;;;4935512;29;20043;-84
2023/06/04 08:11:37;;;;;;;2.72;1.55;;;21.50;99.90;;;;;;4937329;29;20147;-85
2023/06/04 08:14:27;;;;;;;2.80;1.48;;;21.10;99.90;;;;;;4916632;29;20099;-85
2023/06/04 08:20:34;;;;;;;3.70;1.65;;;21.60;99.90;;;;;;5276072;23;20032;-78
2023/06/04 08:23:32;;;;;;;3.08;1.95;;;21.50;99.90;;;;;;4858186;29;20120;-84
2023/06/04 08:36:47;;;;;;;2.85;1.80;;;21.40;99.90;;;;;;4932509;29;20052;-83
2023/06/04 08:39:18;;;;;;;4.82;2.22;;;21.50;99.90;;;;;;4928147;29;20084;-85
2023/06/04 08:42:33;;;;;;;4.85;2.10;;;21.80;99.90;;;;;;4921841;29;20055;-86
2023/06/04 08:51:10;;;;;;;4.45;2.10;;;21.70;99.90;;;;;;4752353;23;20075;-86
2023/06/04 08:55:33;;;;;;;3.72;2.13;;;21.90;99.90;;;;;;4863908;29;20046;-82
2023/06/04 08:59:20;;;;;;;4.70;2.40;;;22.50;99.90;;;;;;4802886;29;20063;-84
2023/06/04 09:06:33;;;;;;;4.55;2.60;;;23.20;99.90;;;;;;4853321;29;20041;-83
2023/06/04 09:09:17;;;;;;;5.90;2.80;;;23.20;99.90;;;;;;4832801;29;20050;-79
2023/06/04 09:15:34;;;;;;;7.05;3.20;;;23.10;99.90;;;;;;4791918;29;20062;-84
2023/06/04 09:18:21;;;;;;;7.30;2.72;;;23.10;99.90;;;;;;4784207;30;20178;-79
2023/06/04 09:21:05;;;;;;;7.28;2.72;;;22.90;99.90;;;;;;4866494;29;20069;-82
2023/06/04 09:23:47;;;;;;;5.40;2.80;;;22.80;99.90;;;;;;4916812;29;20032;-85
2023/06/04 09:26:29;;;;;;;7.22;2.70;;;22.80;99.90;;;;;;4918322;29;20052;-80
2023/06/04 09:29:13;;;;;;;4.85;2.47;;;22.90;99.90;;;;;;4914934;29;20128;-83
2023/06/04 09:32:03;;;;;;;4.78;3.05;;;22.90;99.90;;;;;;4897941;29;20052;-84
2023/06/04 09:34:43;;;;;;;5.63;3.20;;;22.90;99.90;;;;;;4881929;29;20111;-85
2023/06/04 09:37:43;;;;;;;7.78;2.83;;;22.90;99.90;;;;;;4904506;29;20053;-84
2023/06/04 09:58:38;;;;;;;5.40;3.20;;;23.40;99.90;;;;;;4844440;29;20081;-82
2023/06/04 10:01:11;;;;;;;6.90;3.10;;;23.50;99.90;;;;;;4845434;29;20066;-84
2023/06/04 10:03:47;;;;;;;5.45;3.28;;;23.30;99.90;;;;;;4938393;29;20056;-82
2023/06/04 10:06:36;;;;;;;6.22;3.30;;;23.20;99.90;;;;;;4892096;29;20071;-80
2023/06/04 10:10:40;;;;;;;4.32;2.80;;;23.50;99.90;;;;;;4897524;29;20057;-83
2023/06/04 10:13:49;;;;;;;5.07;3.13;;;23.50;99.90;;;;;;4920682;29;20080;-86
2023/06/04 10:22:11;;;;;;;4.88;2.60;;;23.80;99.90;;;;;;4865352;29;20086;-80
2023/06/04 10:24:53;;;;;;;4.65;2.75;;;23.90;99.90;;;;;;4871560;29;20073;-85
2023/06/04 10:28:31;;;;;;;;;;;;;;;;;;;;;
2023/06/04 10:32:09;;;;;;;5.35;2.85;;;23.80;99.90;;;;;;4890399;29;20061;-82
2023/06/04 10:36:02;;;;;;;4.80;2.60;;;24.00;99.90;;;;;;4869942;29;20057;-79
2023/06/04 10:38:51;;;;;;;4.60;2.58;;;24.30;99.90;;;;;;4849442;29;20053;-83
2023/06/04 10:41:24;;;;;;;4.40;3.00;;;24.30;99.90;;;;;;4879253;29;20577;-81
2023/06/04 10:44:19;;;;;;;;;;;;;;;;;;;;;
2023/06/04 10:57:24;;;;;;;5.28;2.88;;;24.50;99.10;;;;;;3214096;23;20044;-83
2023/06/04 10:59:55;;;;;;;4.40;2.67;;;24.50;99.00;;;;;;4918415;29;20049;-85
2023/06/04 11:02:52;;;;;;;4.53;2.80;;;24.70;98.40;;;;;;4928514;29;20056;-79
2023/06/04 11:14:17;;;;;;;5.15;2.78;;;25.20;97.20;;;;;;4936961;29;20047;-86
2023/06/04 11:17:12;;;;;;;8.82;2.60;;;25.40;97.00;;;;;;4934717;29;20052;-81
2023/06/04 11:19:48;;;;;;;4.85;2.65;;;25.30;96.70;;;;;;4959520;29;20047;-83
2023/06/04 11:23:25;;;;;;;4.28;2.30;;;25.50;96.50;;;;;;4946696;29;20048;-79
2023/06/04 11:27:41;;;;;;;4.22;2.42;;;25.60;96.20;;;;;;4933842;29;20055;-78
2023/06/04 11:30:39;;;;;;;4.00;2.50;;;25.90;96.00;;;;;;4915790;29;20068;-80
2023/06/04 11:33:07;;;;;;;4.97;2.72;;;25.60;96.40;;;;;;4937415;29;20036;-82
2023/06/04 11:36:19;;;;;;;4.73;2.40;;;25.50;96.10;;;;;;4936901;29;20048;-85
2023/06/04 11:45:37;;;;;;;5.72;2.60;;;25.50;95.20;;;;;;4717820;27;20431;-83
2023/06/04 11:48:23;;;;;;;5.13;2.65;;;25.50;95.40;;;;;;4921450;29;20040;-88
2023/06/04 12:00:01;;;;;;;10.75;3.10;;;26.40;94.60;;;;;;5048157;23;20056;-82
2023/06/04 12:03:05;;;;;;;7.90;2.90;;;26.00;95.20;;;;;;4887054;29;20044;-80
2023/06/04 12:06:10;;;;;;;5.28;2.67;;;25.80;95.90;;;;;;4909463;29;20029;-79
2023/06/04 12:09:29;;;;;;;4.63;3.10;;;26.00;95.70;;;;;;4916970;29;20087;-77
2023/06/04 12:13:08;;;;;;;6.40;3.38;;;25.70;95.30;;;;;;4912884;29;20048;-81
2023/06/04 12:23:23;;;;;;;5.03;2.60;;;25.70;94.10;;;;;;4873685;29;20064;-85
2023/06/04 12:25:53;;;;;;;4.65;2.78;;;25.90;93.50;;;;;;4874854;29;20068;-85
2023/06/04 12:37:22;;;;;;;4.03;2.35;;;26.10;93.10;;;;;;4803327;29;20047;-80
2023/06/04 12:51:52;;;;;;;5.75;2.60;;;26.50;91.60;;;;;;4950007;29;20125;-85
2023/06/04 12:54:33;;;;;;;4.60;2.63;;;26.90;91.30;;;;;;4949610;29;20112;-85
2023/06/04 12:57:18;;;;;;;4.57;2.83;;;28.10;91.50;;;;;;4918847;29;20076;-86
2023/06/04 13:06:13;;;;;;;5.32;2.30;;;28.50;88.10;;;;;;4961579;23;20052;-78
2023/06/04 13:12:29;;;;;;;4.37;2.50;;;28.40;85.00;;;;;;5586897;23;20052;-85
2023/06/04 13:27:20;;;;;;;4.60;2.45;;;29.00;81.60;;;;;;4675178;23;20044;-81
2023/06/04 13:30:09;;;;;;;4.13;2.38;;;29.40;79.60;;;;;;4902968;29;20123;-81
2023/06/04 13:33:04;;;;;;;;;;;;;;;;;;;;;
2023/06/04 14:06:44;;;;;;;11.75;3.20;;;28.30;78.30;;;;;;4880284;27;20044;-78
2023/06/04 14:10:01;;;;;;;5.10;3.13;;;28.40;81.40;;;;;;4896306;29;20064;-80
2023/06/04 14:12:48;;;;;;;5.65;3.15;;;27.30;82.70;;;;;;4867370;29;20102;-79
2023/06/04 15:06:08;;;;;;;5.30;3.17;;;25.80;88.80;;;;;;5482501;23;20031;-80
2023/06/04 15:18:51;;;;;;;5.40;3.15;;;25.40;91.20;;;;;;3178731;26;20043;-83
2023/06/04 15:22:48;;;;;;;5.03;3.17;;;25.40;91.30;;;;;;5058134;23;20091;-81
2023/06/04 15:29:26;;;;;;;5.68;3.85;;;25.10;91.40;;;;;;5185701;24;20044;-79
2023/06/04 15:32:16;;;;;;;6.97;3.50;;;25.10;92.00;;;;;;4900958;29;20057;-87
2023/06/04 15:43:59;;;;;;;4.57;3.00;;;25.90;91.40;;;;;;4196644;27;20052;-84
2023/06/04 15:46:52;;;;;;;6.38;3.72;;;25.70;91.20;;;;;;4947374;29;20055;-76
2023/06/04 15:50:28;;;;;;;5.32;3.65;;;25.20;92.40;;;;;;4955642;29;20456;-81
2023/06/04 16:05:27;;;;;;;6.15;3.60;;;24.50;94.60;;;;;;4791782;29;20172;-78
2023/06/04 16:07:59;;;;;;;5.22;3.58;;;24.50;95.00;;;;;;4919334;23;20419;-75
2023/06/04 16:11:24;;;;;;;5.67;3.70;;;24.50;95.00;;;;;;4879828;29;20067;-80
2023/06/04 16:15:15;;;;;;;6.10;3.90;;;24.40;95.40;;;;;;4867091;29;20044;-84
2023/06/04 16:21:42;;;;;;;;;;;;;;;;;;;;;
2023/06/04 16:28:19;;;;;;;7.63;4.15;;;24.00;97.60;;;;;;5331388;23;20056;-78
2023/06/04 16:35:21;;;;;;;8.85;3.80;;;24.00;98.30;;;;;;5163779;23;20056;-76
2023/06/04 16:39:18;;;;;;;;;;;;;;;;;;;;;
2023/06/04 16:42:48;;;;;;;;;;;;;;;;;;;;;
2023/06/04 16:51:56;;;;;;;6.43;4.40;;;23.70;98.60;;;;;;5317011;23;20044;-86
2023/06/04 17:28:55;;;;;;;9.70;3.90;;;22.50;99.90;;;;;;4156864;23;20070;-84
2023/06/04 17:45:21;;;;;;;6.63;3.70;;;22.50;99.90;;;;;;4879290;29;20048;-84
2023/06/04 17:52:25;;;;;;;7.68;4.35;;;22.40;99.90;;;;;;4886215;29;20055;-82
2023/06/04 17:55:26;;;;;;;6.72;4.13;;;22.30;99.90;;;;;;4881798;29;20061;-83
2023/06/04 18:10:13;;;;;;;5.65;3.63;;;22.00;99.90;;;;;;5408435;23;20143;-78
2023/06/04 18:19:16;;;;;;;;;;;;;;;;;;;;;
2023/06/04 18:26:01;;;;;;;6.25;3.75;;;22.10;99.90;;;;;;4898206;29;20097;-74
2023/06/04 18:28:35;;;;;;;5.63;3.72;;;22.00;99.90;;;;;;4887522;29;20454;-79
2023/06/04 18:35:06;;;;;;;47.88;32.60;;;21.90;99.90;;;;;;4878356;29;20472;-75
2023/06/04 18:37:43;;;;;;;80.07;54.88;;;21.90;99.90;;;;;;4886185;29;20063;-81
2023/06/04 18:40:17;;;;;;;51.42;40.05;;;22.00;99.90;;;;;;4900682;29;20049;-75
2023/06/04 18:43:24;;;;;;;38.47;27.75;;;21.90;99.90;;;;;;4871910;29;20048;-76
2023/06/04 18:46:07;;;;;;;40.55;29.60;;;21.90;99.90;;;;;;4878007;29;20049;-75
2023/06/04 18:49:15;;;;;;;7.60;5.32;;;21.60;99.90;;;;;;4882641;29;20151;-75
2023/06/04 18:52:06;;;;;;;9.25;4.35;;;21.60;99.90;;;;;;4882543;29;20108;-77
2023/06/04 18:54:48;;;;;;;6.70;4.22;;;21.60;99.90;;;;;;4884297;29;20089;-75
2023/06/04 19:00:25;;;;;;;7.47;4.53;;;21.50;99.90;;;;;;4884917;29;20023;-75
2023/06/04 19:03:07;;;;;;;6.90;4.80;;;21.50;99.90;;;;;;4869442;29;20076;-77
2023/06/04 19:05:58;;;;;;;8.23;4.85;;;21.50;99.90;;;;;;4874016;29;20096;-74
2023/06/04 19:08:46;;;;;;;8.95;5.38;;;21.60;99.90;;;;;;4871197;29;20068;-76
2023/06/04 19:11:35;;;;;;;10.43;4.57;;;21.60;99.90;;;;;;4864440;29;20062;-77
2023/06/04 19:14:22;;;;;;;13.40;5.43;;;21.50;99.90;;;;;;4881200;29;20064;-75
2023/06/04 19:17:28;;;;;;;7.95;4.70;;;21.40;99.90;;;;;;4868122;29;20077;-77
2023/06/04 19:23:12;;;;;;;7.57;4.68;;;21.40;99.90;;;;;;4894743;29;20056;-74
2023/06/04 19:26:39;;;;;;;7.25;4.88;;;21.30;99.90;;;;;;4885723;29;20067;-75
2023/06/04 19:30:13;;;;;;;8.82;5.25;;;21.30;99.90;;;;;;4862780;29;20081;-76
2023/06/04 19:33:10;;;;;;;8.80;5.55;;;21.30;99.90;;;;;;4885629;29;20044;-77
2023/06/04 19:35:51;;;;;;;8.65;4.40;;;21.40;99.90;;;;;;4896740;29;20057;-75
2023/06/04 19:38:41;;;;;;;8.48;5.22;;;21.40;99.90;;;;;;4886695;29;20463;-75
2023/06/04 19:41:13;;;;;;;8.10;5.00;;;21.50;99.90;;;;;;4873673;29;20162;-75
2023/06/04 19:44:02;;;;;;;6.68;4.57;;;21.40;99.90;;;;;;4884703;29;20056;-74
2023/06/04 19:46:41;;;;;;;8.13;4.60;;;21.40;99.90;;;;;;4870427;29;20049;-74
2023/06/04 19:49:14;;;;;;;7.00;4.65;;;21.30;99.90;;;;;;4896235;29;20053;-80
2023/06/04 19:51:52;;;;;;;8.48;4.63;;;21.30;99.90;;;;;;4891120;29;20041;-76
2023/06/04 19:54:27;;;;;;;8.00;4.63;;;21.30;99.90;;;;;;4888620;29;20053;-75
2023/06/04 19:57:36;;;;;;;8.30;5.03;;;21.30;99.90;;;;;;4887331;29;20053;-76
2023/06/04 20:00:13;;;;;;;7.10;4.68;;;21.30;99.90;;;;;;4892944;29;20066;-76
2023/06/04 20:03:05;;;;;;;8.05;4.63;;;21.30;99.90;;;;;;4861550;29;20455;-75
2023/06/04 20:05:59;;;;;;;6.80;4.45;;;21.30;99.90;;;;;;4883246;29;20049;-78
2023/06/04 20:08:30;;;;;;;7.22;4.85;;;21.30;99.90;;;;;;4902659;29;20080;-78
2023/06/04 20:11:23;;;;;;;7.82;4.60;;;21.30;99.90;;;;;;4889903;29;20078;-76
2023/06/04 20:14:06;;;;;;;7.00;4.45;;;21.30;99.90;;;;;;4896413;29;20080;-76
2023/06/04 20:16:58;;;;;;;7.50;5.10;;;21.30;99.90;;;;;;4880146;29;20060;-77
2023/06/04 20:20:06;;;;;;;7.78;4.70;;;21.10;99.90;;;;;;4893130;29;20470;-80
2023/06/04 20:22:59;;;;;;;169.00;109.35;;;21.20;99.90;;;;;;4879742;29;20125;-77
2023/06/04 20:25:38;;;;;;;91.05;63.63;;;21.20;99.90;;;;;;4899587;29;20124;-82
2023/06/04 20:28:09;;;;;;;14.38;11.95;;;21.10;99.90;;;;;;4898695;29;20059;-75
2023/06/04 20:31:20;;;;;;;7.65;5.47;;;21.10;99.90;;;;;;4888293;29;20068;-74
2023/06/04 20:33:50;;;;;;;7.90;5.75;;;21.10;99.90;;;;;;4909992;29;20128;-76
2023/06/04 20:36:21;;;;;;;8.63;5.78;;;21.10;99.90;;;;;;4905541;29;20037;-75
2023/06/04 20:38:55;;;;;;;10.63;6.03;;;21.10;99.90;;;;;;4888101;29;20061;-78
2023/06/04 20:42:13;;;;;;;7.55;5.32;;;21.00;99.90;;;;;;4893364;29;20029;-75
2023/06/04 20:44:52;;;;;;;9.32;4.78;;;21.00;99.90;;;;;;4894344;29;20052;-75
2023/06/04 20:47:39;;;;;;;7.45;4.40;;;20.90;99.90;;;;;;4882276;29;20063;-77
2023/06/04 20:50:17;;;;;;;6.95;4.40;;;20.80;99.90;;;;;;4889553;29;20084;-77
2023/06/04 20:52:50;;;;;;;7.30;4.68;;;20.70;99.90;;;;;;4896633;23;20057;-78
2023/06/04 20:55:23;;;;;;;8.63;5.25;;;20.60;99.90;;;;;;4868228;29;20128;-81
2023/06/04 20:57:58;;;;;;;7.85;5.00;;;20.50;99.90;;;;;;4897993;29;20549;-78
2023/06/04 21:00:41;;;;;;;7.82;4.80;;;20.40;99.90;;;;;;4898681;29;20064;-77
2023/06/04 21:04:00;;;;;;;6.97;4.82;;;20.40;99.90;;;;;;4895957;29;20165;-82
2023/06/04 21:07:06;;;;;;;6.68;4.53;;;20.50;99.90;;;;;;4893946;29;20116;-76
2023/06/04 21:10:08;;;;;;;9.10;4.80;;;20.40;99.90;;;;;;4907909;29;20048;-78
2023/06/04 21:12:50;;;;;;;9.52;4.78;;;20.40;99.90;;;;;;4893608;29;20052;-76
2023/06/04 21:15:43;;;;;;;6.78;4.68;;;20.30;99.90;;;;;;4911492;29;20051;-77
2023/06/04 21:18:27;;;;;;;8.88;4.97;;;20.20;99.90;;;;;;4911161;29;20085;-75
2023/06/04 21:21:12;;;;;;;6.95;4.47;;;20.10;99.90;;;;;;4886284;29;20072;-77
2023/06/04 21:23:43;;;;;;;;;;;20.00;99.90;;;;;;4892169;29;20057;-76
2023/06/04 21:26:12;;;;;;;6.82;4.70;;;19.90;99.90;;;;;;4904578;29;19947;-78
2023/06/04 21:28:47;;;;;;;9.13;4.40;;;19.80;99.90;;;;;;4904449;29;20052;-77
2023/06/04 21:34:53;;;;;;;9.32;4.78;;;19.80;99.90;;;;;;4910736;29;20544;-78
2023/06/04 21:37:52;;;;;;;12.90;5.10;;;19.80;99.90;;;;;;4900799;29;20045;-77
2023/06/04 21:40:30;;;;;;;6.90;4.45;;;19.80;99.90;;;;;;4915475;29;20060;-75
2023/06/04 21:43:40;;;;;;;5.53;3.88;;;19.80;99.90;;;;;;4911142;29;20080;-79
2023/06/04 21:47:16;;;;;;;6.60;4.40;;;19.80;99.90;;;;;;4910632;29;20044;-78
2023/06/04 21:49:59;;;;;;;6.60;4.32;;;20.00;99.90;;;;;;4918947;29;20116;-75
2023/06/04 21:52:57;;;;;;;7.38;4.38;;;19.90;99.90;;;;;;4901118;29;20083;-77
2023/06/04 21:55:55;;;;;;;9.60;4.47;;;19.90;99.90;;;;;;4928458;29;20052;-78
2023/06/04 21:58:36;;;;;;;6.25;4.20;;;20.00;99.90;;;;;;4932675;29;20056;-80
2023/06/04 22:01:17;;;;;;;26.83;17.65;;;20.00;99.90;;;;;;4915454;29;20073;-75
2023/06/04 22:04:08;;;;;;;47.30;29.70;;;20.00;99.90;;;;;;4926420;29;20119;-76
2023/06/04 22:06:40;;;;;;;11.77;7.55;;;20.10;99.90;;;;;;4894386;29;20053;-75
2023/06/04 22:09:26;;;;;;;8.05;5.90;;;20.10;99.90;;;;;;4922654;29;20048;-79
2023/06/04 22:11:56;;;;;;;9.02;5.70;;;20.10;99.90;;;;;;4930403;29;20044;-76